createdAt,value
2019-01-27T00:00:46.779Z,89.10
2019-01-27T00:03:15.304Z,89.30
2019-01-27T00:05:43.808Z,89.00
2019-01-27T00:08:13.699Z,89.10
2019-01-27T00:10:42.880Z,89.20
2019-01-27T00:13:12.882Z,89.40
2019-01-27T00:15:41.373Z,89.50
2019-01-27T00:18:10.120Z,89.90
2019-01-27T00:20:38.602Z,90.00
2019-01-27T00:23:07.125Z,90.10
2019-01-27T00:25:35.615Z,90.20
2019-01-27T00:28:04.506Z,90.20
2019-01-27T00:30:32.995Z,90.20
2019-01-27T00:33:01.459Z,90.30
2019-01-27T00:35:29.944Z,90.30
2019-01-27T00:37:58.386Z,90.30
2019-01-27T00:40:27.062Z,90.30
2019-01-27T00:42:55.628Z,90.30
2019-01-27T00:45:24.070Z,90.40
2019-01-27T00:47:52.491Z,90.40
2019-01-27T00:50:21.078Z,90.40
2019-01-27T00:52:49.576Z,90.40
2019-01-27T00:55:23.251Z,90.40
2019-01-27T00:57:51.810Z,90.40
2019-01-27T01:00:23.366Z,90.40
2019-01-27T01:02:51.790Z,90.40
2019-01-27T01:05:20.293Z,90.40
2019-01-27T01:07:48.858Z,90.40
2019-01-27T01:10:19.946Z,90.40
2019-01-27T01:12:48.763Z,90.30
2019-01-27T01:15:17.887Z,90.40
2019-01-27T01:17:46.469Z,90.50
2019-01-27T01:20:20.377Z,90.50
2019-01-27T01:22:50.912Z,90.30
2019-01-27T01:25:21.926Z,90.20
2019-01-27T01:27:51.555Z,90.10
2019-01-27T01:30:25.647Z,90.10
2019-01-27T01:32:54.130Z,90.10
2019-01-27T01:35:22.715Z,90.30
2019-01-27T01:37:51.223Z,89.90
2019-01-27T01:40:19.996Z,89.60
2019-01-27T01:42:48.786Z,89.40
2019-01-27T01:45:26.026Z,89.20
2019-01-27T01:47:54.632Z,89.00
2019-01-27T01:50:23.481Z,88.80
2019-01-27T01:52:52.003Z,88.80
2019-01-27T01:55:21.295Z,88.70
2019-01-27T01:57:49.863Z,88.40
2019-01-27T02:00:23.312Z,88.30
2019-01-27T02:02:51.906Z,88.30
2019-01-27T02:05:20.871Z,88.10
2019-01-27T02:07:49.585Z,88.10
2019-01-27T02:10:20.246Z,88.50
2019-01-27T02:12:49.437Z,88.60
2019-01-27T02:15:26.802Z,88.80
2019-01-27T02:17:55.263Z,88.80
2019-01-27T02:20:23.712Z,89.00
2019-01-27T02:22:52.167Z,89.10
2019-01-27T02:25:20.601Z,89.00
2019-01-27T02:27:49.201Z,89.00
2019-01-27T02:30:19.162Z,89.00
2019-01-27T02:32:47.614Z,89.00
2019-01-27T02:35:16.067Z,89.00
2019-01-27T02:37:44.527Z,89.00
2019-01-27T02:40:13.412Z,88.90
2019-01-27T02:42:41.890Z,88.90
2019-01-27T02:45:15.721Z,88.80
2019-01-27T02:47:44.387Z,88.80
2019-01-27T02:50:13.382Z,88.70
2019-01-27T02:52:41.811Z,88.60
2019-01-27T02:55:10.412Z,88.60
2019-01-27T02:57:38.903Z,88.70
2019-01-27T03:00:16.382Z,88.70
2019-01-27T03:02:44.815Z,88.80
2019-01-27T03:05:31.430Z,88.70
2019-01-27T03:07:59.998Z,88.80
2019-01-27T03:10:28.448Z,88.80
2019-01-27T03:12:56.866Z,89.00
2019-01-27T03:15:25.486Z,89.00
2019-01-27T03:17:53.923Z,89.20
2019-01-27T03:20:22.371Z,89.30
2019-01-27T03:22:50.827Z,89.90
2019-01-27T03:25:19.271Z,90.00
2019-01-27T03:27:47.706Z,89.90
2019-01-27T03:30:19.167Z,89.90
2019-01-27T03:32:47.671Z,89.70
2019-01-27T03:35:16.354Z,89.60
2019-01-27T03:37:44.906Z,89.80
2019-01-27T03:40:15.786Z,90.00
2019-01-27T03:42:44.449Z,90.00
2019-01-27T03:45:15.459Z,90.20
2019-01-27T03:47:43.952Z,90.20
2019-01-27T03:50:15.710Z,90.00
2019-01-27T03:52:44.145Z,89.60
2019-01-27T03:55:24.567Z,89.20
2019-01-27T03:57:53.057Z,89.10
2019-01-27T04:00:25.313Z,89.10
2019-01-27T04:02:53.762Z,89.00
2019-01-27T04:05:22.329Z,89.10
2019-01-27T04:07:51.020Z,89.30
2019-01-27T04:10:22.514Z,89.20
2019-01-27T04:12:51.034Z,89.20
2019-01-27T04:15:19.742Z,89.20
2019-01-27T04:17:48.357Z,89.10
2019-01-27T04:20:19.389Z,89.30
2019-01-27T04:22:48.107Z,89.40
2019-01-27T04:25:17.070Z,89.70
2019-01-27T04:27:45.662Z,89.80
2019-01-27T04:30:24.490Z,89.80
2019-01-27T04:32:52.954Z,90.00
2019-01-27T04:35:21.451Z,90.00
2019-01-27T04:37:49.998Z,90.00
2019-01-27T04:40:20.569Z,90.10
2019-01-27T04:42:49.064Z,90.20
2019-01-27T04:45:19.455Z,90.10
2019-01-27T04:47:47.967Z,90.00
2019-01-27T04:50:16.638Z,89.50
2019-01-27T04:52:45.494Z,88.40
2019-01-27T04:55:19.021Z,87.70
2019-01-27T04:57:47.982Z,87.60
2019-01-27T05:00:25.534Z,87.10
2019-01-27T05:03:14.152Z,87.40
2019-01-27T05:05:42.663Z,86.30
2019-01-27T05:08:11.103Z,85.30
2019-01-27T05:10:39.618Z,82.80
2019-01-27T05:13:08.044Z,80.80
2019-01-27T05:15:36.492Z,79.80
2019-01-27T05:18:05.202Z,80.00
2019-01-27T05:20:33.698Z,80.10
2019-01-27T05:23:02.146Z,80.10
2019-01-27T05:25:30.659Z,77.80
2019-01-27T05:27:59.102Z,77.00
2019-01-27T05:30:29.594Z,76.20
2019-01-27T05:32:58.083Z,76.00
2019-01-27T05:35:26.531Z,75.40
2019-01-27T05:37:54.946Z,75.40
2019-01-27T05:40:23.549Z,74.60
2019-01-27T05:42:52.069Z,73.50
2019-01-27T05:45:22.218Z,72.30
2019-01-27T05:47:50.657Z,72.00
2019-01-27T05:50:19.426Z,72.00
2019-01-27T05:52:48.021Z,72.20
2019-01-27T05:55:20.574Z,72.70
2019-01-27T05:57:49.118Z,72.30
2019-01-27T06:00:33.338Z,73.00
2019-01-27T06:03:01.934Z,72.80
2019-01-27T06:05:30.435Z,73.00
2019-01-27T06:07:59.011Z,72.60
2019-01-27T06:10:27.458Z,74.20
2019-01-27T06:12:55.947Z,73.80
2019-01-27T06:15:24.522Z,73.50
2019-01-27T06:17:52.958Z,73.60
2019-01-27T06:20:21.446Z,73.30
2019-01-27T06:22:49.908Z,73.80
2019-01-27T06:25:19.547Z,72.90
2019-01-27T06:27:48.039Z,73.00
2019-01-27T06:30:22.573Z,72.00
2019-01-27T06:33:06.141Z,71.80
2019-01-27T06:35:34.899Z,72.70
2019-01-27T06:38:03.336Z,72.70
2019-01-27T06:40:34.246Z,72.80
2019-01-27T06:43:02.706Z,72.20
2019-01-27T06:45:31.140Z,71.90
2019-01-27T06:47:59.574Z,72.30
2019-01-27T06:50:28.021Z,73.10
2019-01-27T06:52:56.467Z,73.80
2019-01-27T06:55:25.135Z,74.20
2019-01-27T06:57:53.591Z,74.80
2019-01-27T07:00:38.372Z,75.30
2019-01-27T07:03:23.871Z,76.00
2019-01-27T07:05:54.156Z,76.80
2019-01-27T07:08:24.202Z,77.00
2019-01-27T07:10:54.292Z,76.60
2019-01-27T07:13:24.436Z,76.10
2019-01-27T07:15:54.518Z,77.00
2019-01-27T07:18:24.662Z,77.50
2019-01-27T07:20:54.750Z,77.90
2019-01-27T07:23:36.901Z,77.40
2019-01-27T07:26:09.870Z,76.50
2019-01-27T07:28:39.934Z,75.80
2019-01-27T07:31:10.034Z,75.60
2019-01-27T07:33:40.104Z,75.50
2019-01-27T07:36:10.252Z,75.10
2019-01-27T07:38:40.346Z,74.20
2019-01-27T07:41:14.773Z,74.80
2019-01-27T07:43:44.842Z,75.70
2019-01-27T07:46:15.007Z,75.50
2019-01-27T07:48:45.090Z,75.90
2019-01-27T07:51:17.985Z,76.90
2019-01-27T07:53:48.114Z,78.50
2019-01-27T07:56:34.391Z,78.40
2019-01-27T07:59:10.170Z,76.90
2019-01-27T08:01:45.806Z,75.80
2019-01-27T08:04:15.862Z,73.50
2019-01-27T08:06:45.950Z,72.20
2019-01-27T08:09:16.031Z,71.10
2019-01-27T08:11:46.103Z,69.90
2019-01-27T08:14:16.175Z,68.70
2019-01-27T08:16:49.275Z,67.20
2019-01-27T08:19:31.690Z,66.70
2019-01-27T08:22:04.439Z,67.20
2019-01-27T08:24:34.559Z,66.90
2019-01-27T08:27:13.650Z,67.60
2019-01-27T08:29:46.559Z,67.40
2019-01-27T08:32:19.427Z,67.60
2019-01-27T08:35:01.502Z,67.60
2019-01-27T08:37:31.571Z,68.70
2019-01-27T08:40:01.656Z,68.40
2019-01-27T08:42:37.869Z,68.40
2019-01-27T08:45:13.511Z,69.00
2019-01-27T08:47:42.061Z,69.00
2019-01-27T08:50:13.711Z,67.60
2019-01-27T08:52:42.280Z,67.60
2019-01-27T08:55:12.782Z,67.00
2019-01-27T08:57:41.274Z,65.90
2019-01-27T09:00:15.884Z,65.00
2019-01-27T09:02:48.659Z,64.50
2019-01-27T09:05:21.774Z,64.50
2019-01-27T09:08:07.128Z,65.00
2019-01-27T09:10:37.198Z,64.70
2019-01-27T09:13:23.984Z,64.40
2019-01-27T09:15:56.867Z,64.10
2019-01-27T09:18:26.918Z,63.70
2019-01-27T09:20:57.023Z,63.80
2019-01-27T09:23:27.094Z,63.50
2019-01-27T09:25:57.190Z,63.50
2019-01-27T09:28:27.387Z,63.30
2019-01-27T09:31:15.594Z,63.50
2019-01-27T09:33:45.659Z,63.10
2019-01-27T09:36:32.011Z,62.90
2019-01-27T09:39:02.070Z,63.20
2019-01-27T09:41:32.146Z,62.70
2019-01-27T09:44:02.218Z,63.00
2019-01-27T09:46:47.330Z,63.20
2019-01-27T09:49:18.919Z,63.10
2019-01-27T09:51:54.660Z,63.00
2019-01-27T09:54:24.801Z,63.30
2019-01-27T09:56:57.844Z,63.30
2019-01-27T09:59:27.970Z,62.70
2019-01-27T10:01:58.058Z,62.90
2019-01-27T10:04:37.338Z,63.00
2019-01-27T10:07:07.436Z,63.50
2019-01-27T10:09:53.734Z,62.50
2019-01-27T10:12:26.324Z,62.40
2019-01-27T10:14:56.374Z,62.40
2019-01-27T10:17:29.178Z,62.10
2019-01-27T10:20:04.995Z,62.00
2019-01-27T10:22:35.108Z,61.80
2019-01-27T10:25:23.011Z,61.90
2019-01-27T10:27:53.075Z,62.10
2019-01-27T10:30:35.664Z,62.50
2019-01-27T10:33:11.930Z,61.90
2019-01-27T10:35:42.942Z,62.20
2019-01-27T10:38:13.354Z,62.20
2019-01-27T10:40:43.447Z,62.30
2019-01-27T10:43:19.253Z,62.40
2019-01-27T10:45:49.333Z,62.40
2019-01-27T10:48:34.610Z,62.00
2019-01-27T10:51:07.679Z,61.60
2019-01-27T10:53:49.799Z,61.50
2019-01-27T10:56:19.901Z,61.50
2019-01-27T10:58:58.803Z,61.60
2019-01-27T11:01:45.484Z,61.70
2019-01-27T11:04:15.615Z,61.60
2019-01-27T11:07:03.939Z,61.60
2019-01-27T11:09:34.193Z,61.50
2019-01-27T11:12:04.301Z,61.70
2019-01-27T11:14:50.751Z,60.80
2019-01-27T11:17:20.870Z,61.10
2019-01-27T11:19:51.071Z,60.80
2019-01-27T11:22:37.889Z,61.00
2019-01-27T11:25:13.419Z,60.80
2019-01-27T11:27:59.882Z,60.80
2019-01-27T11:30:30.296Z,61.00
2019-01-27T11:33:12.616Z,61.20
2019-01-27T11:35:48.515Z,61.30
2019-01-27T11:38:18.750Z,61.40
2019-01-27T11:40:57.500Z,61.60
2019-01-27T11:44:14.594Z,61.10
2019-01-27T11:46:15.720Z,27.60
2019-01-27T11:49:11.533Z,60.80
2019-01-27T11:51:47.006Z,60.80
2019-01-27T11:54:21.690Z,61.10
2019-01-27T11:56:53.812Z,61.00
2019-01-27T11:59:26.674Z,61.30
2019-01-27T12:01:59.806Z,61.50
2019-01-27T12:04:28.331Z,61.40
2019-01-27T12:07:05.201Z,61.70
2019-01-27T12:09:36.866Z,61.80
2019-01-27T12:12:18.968Z,62.00
2019-01-27T12:15:06.612Z,61.70
2019-01-27T12:17:36.720Z,61.60
2019-01-27T12:20:08.622Z,61.60
2019-01-27T12:22:37.040Z,61.10
2019-01-27T12:25:08.894Z,61.10
2019-01-27T12:27:37.323Z,61.10
2019-01-27T12:30:17.316Z,61.40
2019-01-27T12:32:45.813Z,61.30
2019-01-27T12:35:14.507Z,26.70
2019-01-27T12:37:43.006Z,26.50
2019-01-27T12:40:14.375Z,60.90
2019-01-27T12:42:42.936Z,26.80
2019-01-27T12:45:16.215Z,25.40
2019-01-27T12:47:44.794Z,25.80
2019-01-27T12:50:17.981Z,60.50
2019-01-27T12:52:53.519Z,60.60
2019-01-27T12:55:22.045Z,60.50
2019-01-27T12:57:51.759Z,25.90
2019-01-27T13:00:29.311Z,25.50
2019-01-27T13:02:57.847Z,24.90
2019-01-27T13:05:26.360Z,25.50
2019-01-27T13:07:54.799Z,24.70
2019-01-27T13:10:23.301Z,24.80
2019-01-27T13:15:26.159Z,60.30
2019-01-27T13:17:54.735Z,60.20
2019-01-27T13:20:23.167Z,60.40
2019-01-27T13:22:51.642Z,60.40
2019-01-27T13:25:20.964Z,60.40
2019-01-27T13:27:49.417Z,60.40
2019-01-27T13:30:20.487Z,60.40
2019-01-27T13:32:49.577Z,60.50
2019-01-27T13:35:19.139Z,60.30
2019-01-27T13:37:47.639Z,60.50
2019-01-27T13:40:18.557Z,60.40
2019-01-27T13:42:47.630Z,60.30
2019-01-27T13:45:18.572Z,60.50
2019-01-27T13:47:47.248Z,60.40
2019-01-27T13:50:16.680Z,60.40
2019-01-27T13:52:45.279Z,60.50
2019-01-27T13:56:09.708Z,60.40
2019-01-27T13:57:56.322Z,60.60
2019-01-27T14:00:41.778Z,60.40
2019-01-27T14:03:10.323Z,60.30
2019-01-27T14:05:38.911Z,60.20
2019-01-27T14:08:07.419Z,25.10
2019-01-27T14:10:36.126Z,24.90
2019-01-27T14:13:04.685Z,24.80
2019-01-27T14:15:35.987Z,24.90
2019-01-27T14:18:05.365Z,24.40
2019-01-27T14:20:33.803Z,24.20
2019-01-27T14:23:02.314Z,24.00
2019-01-27T14:25:31.308Z,24.10
2019-01-27T14:27:59.879Z,24.40
2019-01-27T14:30:37.236Z,24.20
2019-01-27T14:33:05.908Z,24.10
2019-01-27T14:35:34.498Z,23.90
2019-01-27T14:38:02.995Z,23.80
2019-01-27T14:40:31.800Z,23.70
2019-01-27T14:43:00.884Z,59.80
2019-01-27T14:45:31.857Z,60.00
2019-01-27T14:48:01.030Z,59.60
2019-01-27T14:50:41.785Z,59.60
2019-01-27T14:53:10.755Z,60.00
2019-01-27T14:55:39.270Z,60.00
2019-01-27T14:58:07.822Z,60.00
2019-01-27T15:00:41.670Z,60.10
2019-01-27T15:03:10.258Z,60.20
2019-01-27T15:05:48.094Z,60.20
2019-01-27T15:08:19.419Z,60.20
2019-01-27T15:10:47.995Z,60.20
2019-01-27T15:13:16.478Z,60.30
2019-01-27T15:15:45.136Z,60.30
2019-01-27T15:18:13.740Z,60.30
2019-01-27T15:20:45.303Z,60.40
2019-01-27T15:23:13.809Z,60.30
2019-01-27T15:25:42.278Z,60.30
2019-01-27T15:28:10.752Z,60.40
2019-01-27T15:30:39.899Z,60.40
2019-01-27T15:33:08.575Z,60.40
2019-01-27T15:35:37.639Z,60.40
2019-01-27T15:38:06.612Z,60.40
2019-01-27T15:40:35.171Z,60.30
2019-01-27T15:43:03.814Z,60.40
2019-01-27T15:45:33.196Z,60.40
2019-01-27T15:48:03.238Z,60.40
2019-01-27T15:50:33.595Z,60.40
2019-01-27T15:53:02.878Z,60.50
2019-01-27T15:55:31.276Z,60.50
2019-01-27T15:57:59.757Z,60.60
2019-01-27T16:00:32.105Z,60.60
2019-01-27T16:03:00.686Z,60.60
2019-01-27T16:05:30.720Z,60.70
2019-01-27T16:07:59.306Z,60.70
2019-01-27T16:11:33.632Z,60.70
2019-01-27T16:13:36.309Z,60.80
2019-01-27T16:19:07.459Z,60.80
2019-01-27T16:21:36.943Z,61.10
2019-01-27T16:24:07.102Z,61.00
2019-01-27T16:26:35.529Z,61.00
2019-01-27T16:29:04.657Z,61.00
2019-01-27T16:31:34.730Z,61.10
2019-01-27T16:34:07.858Z,61.10
2019-01-27T16:36:36.357Z,61.10
2019-01-27T16:39:07.959Z,61.10
2019-01-27T16:41:38.028Z,61.10
2019-01-27T16:44:06.854Z,61.10
2019-01-27T16:46:35.323Z,61.10
2019-01-27T16:49:03.771Z,61.20
2019-01-27T16:51:32.758Z,61.20
2019-01-27T16:54:01.286Z,61.10
2019-01-27T16:56:29.883Z,60.90
2019-01-27T16:58:59.490Z,60.80
2019-01-27T17:01:28.283Z,60.90
2019-01-27T17:03:56.694Z,60.80
2019-01-27T17:06:25.182Z,60.90
2019-01-27T17:08:53.634Z,61.00
2019-01-27T17:11:22.085Z,61.10
2019-01-27T17:13:50.518Z,61.00
2019-01-27T17:16:19.126Z,61.00
2019-01-27T17:18:47.621Z,61.10
2019-01-27T17:21:16.134Z,61.30
2019-01-27T17:23:44.727Z,61.40
2019-01-27T17:26:13.366Z,61.50
2019-01-27T17:28:42.075Z,61.60
2019-01-27T17:31:10.540Z,61.70
2019-01-27T17:33:39.026Z,61.70
2019-01-27T17:36:08.687Z,61.90
2019-01-27T17:38:40.502Z,61.80
2019-01-27T17:41:07.538Z,61.80
2019-01-27T17:43:36.276Z,61.80
2019-01-27T17:46:05.290Z,61.90
2019-01-27T17:48:34.954Z,61.80
2019-01-27T17:51:03.566Z,61.80
2019-01-27T17:53:33.738Z,61.80
2019-01-27T17:56:02.239Z,62.00
2019-01-27T17:58:38.631Z,62.10
2019-01-27T18:01:11.893Z,62.30
2019-01-27T18:03:41.983Z,62.60
2019-01-27T18:06:28.458Z,62.80
2019-01-27T18:08:58.556Z,62.80
2019-01-27T18:11:29.937Z,63.00
2019-01-27T18:14:02.726Z,63.00
2019-01-27T18:16:31.231Z,63.00
2019-01-27T18:18:59.796Z,62.60
2019-01-27T18:21:28.204Z,62.70
2019-01-27T18:23:56.725Z,62.70
2019-01-27T18:26:25.146Z,63.10
2019-01-27T18:28:55.225Z,63.40
2019-01-27T18:31:23.650Z,63.60
2019-01-27T18:33:52.212Z,63.70
2019-01-27T18:36:20.769Z,63.80
2019-01-27T18:38:49.309Z,64.40
2019-01-27T18:41:17.872Z,64.90
2019-01-27T18:43:46.518Z,65.50
2019-01-27T18:46:15.153Z,65.70
2019-01-27T18:48:43.612Z,66.10
2019-01-27T18:51:12.038Z,66.30
2019-01-27T18:53:48.528Z,65.50
2019-01-27T18:56:18.591Z,65.60
2019-01-27T18:59:05.286Z,66.10
2019-01-27T19:01:50.302Z,66.50
2019-01-27T19:04:20.736Z,66.70
2019-01-27T19:07:06.002Z,66.60
2019-01-27T19:09:44.912Z,67.10
2019-01-27T19:12:17.653Z,67.40
2019-01-27T19:14:58.680Z,67.60
2019-01-27T19:17:40.849Z,68.10
2019-01-27T19:20:13.915Z,67.80
2019-01-27T19:22:49.790Z,67.90
2019-01-27T19:25:25.683Z,68.00
2019-01-27T19:27:55.819Z,67.80
2019-01-27T19:30:29.058Z,67.30
2019-01-27T19:33:01.797Z,66.70
2019-01-27T19:35:40.750Z,67.00
2019-01-27T19:38:10.879Z,67.00
2019-01-27T19:40:41.056Z,67.20
2019-01-27T19:43:11.114Z,67.10
2019-01-27T19:45:59.691Z,66.70
2019-01-27T19:48:29.922Z,66.90
2019-01-27T19:51:05.974Z,67.00
2019-01-27T19:53:36.214Z,66.90
2019-01-27T19:56:06.519Z,67.00
2019-01-27T19:58:39.713Z,67.00
2019-01-27T20:01:13.040Z,66.80
2019-01-27T20:03:43.156Z,67.70
2019-01-27T20:06:19.080Z,69.10
2019-01-27T20:09:05.471Z,70.40
2019-01-27T20:11:44.849Z,71.50
2019-01-27T20:14:17.673Z,72.50
2019-01-27T20:16:54.500Z,73.40
2019-01-27T20:19:24.635Z,73.30
2019-01-27T20:21:54.906Z,74.40
2019-01-27T20:24:25.008Z,75.70
2019-01-27T20:27:09.974Z,76.50
2019-01-27T20:29:43.048Z,77.70
2019-01-27T20:32:29.670Z,76.70
2019-01-27T20:35:02.682Z,77.40
2019-01-27T20:37:35.582Z,77.90
2019-01-27T20:40:08.551Z,78.20
2019-01-27T20:42:41.562Z,78.70
2019-01-27T20:45:18.711Z,79.90
2019-01-27T20:47:48.914Z,80.30
2019-01-27T20:50:22.312Z,81.10
2019-01-27T20:53:07.810Z,81.30
2019-01-27T20:55:37.941Z,81.50
2019-01-27T20:58:08.046Z,81.40
2019-01-27T21:00:40.922Z,81.00
2019-01-27T21:03:22.987Z,80.90
2019-01-27T21:06:01.643Z,81.50
2019-01-27T21:08:31.706Z,82.50
2019-01-27T21:11:10.753Z,82.80
2019-01-27T21:13:46.912Z,80.40
2019-01-27T21:16:17.247Z,78.50
2019-01-27T21:18:53.030Z,74.60
2019-01-27T21:21:21.495Z,74.00
2019-01-27T21:23:49.911Z,74.00
2019-01-27T21:26:18.388Z,75.00
2019-01-27T21:28:46.883Z,76.10
2019-01-27T21:31:15.301Z,77.40
2019-01-27T21:33:43.759Z,77.90
2019-01-27T21:36:12.256Z,78.90
2019-01-27T21:38:40.705Z,77.90
2019-01-27T21:41:09.129Z,78.80
2019-01-27T21:43:37.606Z,78.70
2019-01-27T21:46:06.364Z,78.80
2019-01-27T21:48:34.815Z,79.80
2019-01-27T21:51:03.234Z,80.30
2019-01-27T21:53:31.707Z,80.10
2019-01-27T21:56:00.171Z,79.50
2019-01-27T21:58:28.607Z,79.80
2019-01-27T22:00:57.200Z,80.20
2019-01-27T22:03:25.656Z,80.30
2019-01-27T22:05:54.106Z,81.20
2019-01-27T22:08:22.523Z,81.40
2019-01-27T22:10:51.044Z,82.30
2019-01-27T22:13:19.552Z,82.40
2019-01-27T22:15:48.077Z,82.70
2019-01-27T22:18:16.490Z,82.70
2019-01-27T22:20:45.011Z,82.80
2019-01-27T22:23:13.427Z,83.00
2019-01-27T22:25:41.928Z,83.10
2019-01-27T22:28:10.352Z,82.50
2019-01-27T22:30:38.798Z,82.40
2019-01-27T22:33:07.224Z,82.50
2019-01-27T22:35:35.731Z,82.80
2019-01-27T22:38:04.391Z,82.50
2019-01-27T22:40:32.839Z,81.20
2019-01-27T22:43:01.270Z,80.10
2019-01-27T22:45:29.719Z,79.20
2019-01-27T22:47:58.141Z,78.60
2019-01-27T22:50:26.603Z,79.30
2019-01-27T22:52:55.044Z,80.00
2019-01-27T22:55:23.467Z,80.30
2019-01-27T22:57:51.930Z,81.30
2019-01-27T23:00:40.117Z,81.90
2019-01-27T23:03:09.286Z,82.90
2019-01-27T23:05:37.760Z,83.50
2019-01-27T23:08:06.273Z,82.90
2019-01-27T23:10:34.791Z,82.70
2019-01-27T23:13:03.465Z,80.70
2019-01-27T23:15:32.226Z,78.50
2019-01-27T23:18:00.954Z,78.80
2019-01-27T23:20:29.711Z,76.60
2019-01-27T23:22:58.443Z,77.30
2019-01-27T23:25:27.160Z,77.50
2019-01-27T23:27:55.643Z,76.90
2019-01-27T23:30:24.067Z,76.90
2019-01-27T23:32:52.520Z,77.50
2019-01-27T23:35:20.925Z,74.80
2019-01-27T23:37:50.914Z,74.20
2019-01-27T23:40:19.334Z,74.20
2019-01-27T23:42:47.839Z,74.50
2019-01-27T23:45:16.277Z,75.10
2019-01-27T23:47:44.782Z,76.80
2019-01-27T23:50:13.562Z,77.60
2019-01-27T23:52:42.002Z,77.80
2019-01-27T23:55:10.781Z,76.30
2019-01-27T23:57:39.337Z,73.60
